sensor_id;sensor_type;location;lat;lon;timestamp;P1;durP1;ratioP1;P2;durP2;ratioP2
37845;SDS011;23686;49.828;8.702;2023-03-01T00:01:01;24.23;;;11.77;;
37845;SDS011;23686;49.828;8.702;2023-03-01T00:03:46;18.40;;;11.57;;
37845;SDS011;23686;49.828;8.702;2023-03-01T00:06:12;18.73;;;11.68;;
37845;SDS011;23686;49.828;8.702;2023-03-01T00:08:38;18.15;;;11.45;;
37845;SDS011;23686;49.828;8.702;2023-03-01T00:13:41;20.63;;;11.55;;
37845;SDS011;23686;49.828;8.702;2023-03-01T00:16:08;19.80;;;12.50;;
37845;SDS011;23686;49.828;8.702;2023-03-01T00:18:38;18.70;;;13.02;;
37845;SDS011;23686;49.828;8.702;2023-03-01T00:21:04;19.05;;;12.18;;
37845;SDS011;23686;49.828;8.702;2023-03-01T00:23:31;18.80;;;12.13;;
37845;SDS011;23686;49.828;8.702;2023-03-01T00:25:58;21.97;;;13.17;;
37845;SDS011;23686;49.828;8.702;2023-03-01T00:28:23;22.42;;;13.15;;
37845;SDS011;23686;49.828;8.702;2023-03-01T00:30:49;18.83;;;11.27;;
37845;SDS011;23686;49.828;8.702;2023-03-01T00:33:14;23.52;;;12.80;;
37845;SDS011;23686;49.828;8.702;2023-03-01T00:35:40;19.35;;;11.98;;
37845;SDS011;23686;49.828;8.702;2023-03-01T00:38:06;20.52;;;12.25;;
37845;SDS011;23686;49.828;8.702;2023-03-01T00:40:32;18.58;;;11.85;;
37845;SDS011;23686;49.828;8.702;2023-03-01T00:43:00;19.58;;;12.48;;
37845;SDS011;23686;49.828;8.702;2023-03-01T00:45:26;17.17;;;11.90;;
37845;SDS011;23686;49.828;8.702;2023-03-01T00:47:52;17.77;;;11.93;;
37845;SDS011;23686;49.828;8.702;2023-03-01T00:50:18;18.95;;;12.20;;
37845;SDS011;23686;49.828;8.702;2023-03-01T00:52:44;17.40;;;12.82;;
37845;SDS011;23686;49.828;8.702;2023-03-01T00:55:11;17.30;;;11.57;;
37845;SDS011;23686;49.828;8.702;2023-03-01T00:57:37;18.30;;;11.38;;
37845;SDS011;23686;49.828;8.702;2023-03-01T01:00:04;21.67;;;12.75;;
37845;SDS011;23686;49.828;8.702;2023-03-01T01:02:32;17.58;;;12.77;;
37845;SDS011;23686;49.828;8.702;2023-03-01T01:04:58;20.13;;;12.23;;
37845;SDS011;23686;49.828;8.702;2023-03-01T01:07:24;19.50;;;12.57;;
37845;SDS011;23686;49.828;8.702;2023-03-01T01:09:50;17.77;;;12.48;;
37845;SDS011;23686;49.828;8.702;2023-03-01T01:12:15;20.55;;;12.50;;
37845;SDS011;23686;49.828;8.702;2023-03-01T01:14:41;20.75;;;13.15;;
37845;SDS011;23686;49.828;8.702;2023-03-01T01:17:06;19.73;;;12.88;;
37845;SDS011;23686;49.828;8.702;2023-03-01T01:19:32;22.27;;;13.52;;
37845;SDS011;23686;49.828;8.702;2023-03-01T01:21:57;20.40;;;13.20;;
37845;SDS011;23686;49.828;8.702;2023-03-01T01:24:23;19.50;;;12.63;;
37845;SDS011;23686;49.828;8.702;2023-03-01T01:26:49;21.90;;;13.25;;
37845;SDS011;23686;49.828;8.702;2023-03-01T01:29:14;18.17;;;13.05;;
37845;SDS011;23686;49.828;8.702;2023-03-01T01:31:40;19.67;;;13.15;;
37845;SDS011;23686;49.828;8.702;2023-03-01T01:34:07;22.67;;;14.27;;
37845;SDS011;23686;49.828;8.702;2023-03-01T01:36:38;20.05;;;12.77;;
37845;SDS011;23686;49.828;8.702;2023-03-01T01:39:03;22.23;;;13.27;;
37845;SDS011;23686;49.828;8.702;2023-03-01T01:41:29;18.60;;;12.30;;
37845;SDS011;23686;49.828;8.702;2023-03-01T01:44:10;20.70;;;13.57;;
37845;SDS011;23686;49.828;8.702;2023-03-01T01:46:40;17.98;;;12.10;;
37845;SDS011;23686;49.828;8.702;2023-03-01T01:51:47;24.70;;;13.27;;
37845;SDS011;23686;49.828;8.702;2023-03-01T01:54:25;21.67;;;13.63;;
37845;SDS011;23686;49.828;8.702;2023-03-01T01:57:02;22.38;;;13.10;;
37845;SDS011;23686;49.828;8.702;2023-03-01T01:59:31;19.17;;;13.40;;
37845;SDS011;23686;49.828;8.702;2023-03-01T02:01:58;20.60;;;13.77;;
37845;SDS011;23686;49.828;8.702;2023-03-01T02:06:58;22.17;;;13.52;;
37845;SDS011;23686;49.828;8.702;2023-03-01T02:09:28;19.02;;;12.85;;
37845;SDS011;23686;49.828;8.702;2023-03-01T02:11:55;22.98;;;13.50;;
37845;SDS011;23686;49.828;8.702;2023-03-01T02:14:22;24.13;;;15.05;;
37845;SDS011;23686;49.828;8.702;2023-03-01T02:16:47;21.33;;;13.30;;
37845;SDS011;23686;49.828;8.702;2023-03-01T02:19:17;20.50;;;12.48;;
37845;SDS011;23686;49.828;8.702;2023-03-01T02:22:01;21.25;;;13.25;;
37845;SDS011;23686;49.828;8.702;2023-03-01T02:24:39;21.05;;;12.60;;
37845;SDS011;23686;49.828;8.702;2023-03-01T02:27:26;22.45;;;13.15;;
37845;SDS011;23686;49.828;8.702;2023-03-01T02:30:03;19.13;;;12.68;;
37845;SDS011;23686;49.828;8.702;2023-03-01T02:32:29;21.42;;;12.40;;
37845;SDS011;23686;49.828;8.702;2023-03-01T02:34:55;21.13;;;12.50;;
37845;SDS011;23686;49.828;8.702;2023-03-01T02:37:21;19.90;;;12.80;;
37845;SDS011;23686;49.828;8.702;2023-03-01T02:39:50;22.27;;;13.40;;
37845;SDS011;23686;49.828;8.702;2023-03-01T02:42:23;18.35;;;12.50;;
37845;SDS011;23686;49.828;8.702;2023-03-01T02:44:54;21.85;;;13.88;;
37845;SDS011;23686;49.828;8.702;2023-03-01T02:47:20;22.63;;;13.48;;
37845;SDS011;23686;49.828;8.702;2023-03-01T02:49:45;20.08;;;13.55;;
37845;SDS011;23686;49.828;8.702;2023-03-01T02:55:02;21.15;;;13.35;;
37845;SDS011;23686;49.828;8.702;2023-03-01T02:57:32;20.85;;;13.65;;
37845;SDS011;23686;49.828;8.702;2023-03-01T03:00:01;17.95;;;12.27;;
37845;SDS011;23686;49.828;8.702;2023-03-01T03:02:44;21.48;;;13.07;;
37845;SDS011;23686;49.828;8.702;2023-03-01T03:05:16;21.63;;;12.93;;
37845;SDS011;23686;49.828;8.702;2023-03-01T03:07:44;19.50;;;13.70;;
37845;SDS011;23686;49.828;8.702;2023-03-01T03:10:12;17.98;;;12.55;;
37845;SDS011;23686;49.828;8.702;2023-03-01T03:12:47;21.17;;;12.77;;
37845;SDS011;23686;49.828;8.702;2023-03-01T03:15:15;19.63;;;13.32;;
37845;SDS011;23686;49.828;8.702;2023-03-01T03:17:41;20.70;;;12.57;;
37845;SDS011;23686;49.828;8.702;2023-03-01T03:20:08;19.88;;;12.77;;
37845;SDS011;23686;49.828;8.702;2023-03-01T03:22:37;21.88;;;13.27;;
37845;SDS011;23686;49.828;8.702;2023-03-01T03:25:04;21.77;;;13.18;;
37845;SDS011;23686;49.828;8.702;2023-03-01T03:27:35;24.05;;;14.18;;
37845;SDS011;23686;49.828;8.702;2023-03-01T03:30:04;20.40;;;13.25;;
37845;SDS011;23686;49.828;8.702;2023-03-01T03:32:39;19.45;;;12.43;;
37845;SDS011;23686;49.828;8.702;2023-03-01T03:35:07;20.35;;;13.43;;
37845;SDS011;23686;49.828;8.702;2023-03-01T03:37:40;20.15;;;12.80;;
37845;SDS011;23686;49.828;8.702;2023-03-01T03:40:29;21.10;;;13.38;;
37845;SDS011;23686;49.828;8.702;2023-03-01T03:42:56;22.23;;;12.90;;
37845;SDS011;23686;49.828;8.702;2023-03-01T03:45:22;19.30;;;13.45;;
37845;SDS011;23686;49.828;8.702;2023-03-01T03:47:47;22.60;;;12.93;;
37845;SDS011;23686;49.828;8.702;2023-03-01T03:50:14;20.42;;;13.25;;
37845;SDS011;23686;49.828;8.702;2023-03-01T03:52:41;20.58;;;13.43;;
37845;SDS011;23686;49.828;8.702;2023-03-01T03:55:08;22.40;;;13.02;;
37845;SDS011;23686;49.828;8.702;2023-03-01T03:57:35;21.02;;;13.38;;
37845;SDS011;23686;49.828;8.702;2023-03-01T04:00:08;26.02;;;14.15;;
37845;SDS011;23686;49.828;8.702;2023-03-01T04:02:43;22.50;;;13.00;;
37845;SDS011;23686;49.828;8.702;2023-03-01T04:05:11;25.38;;;14.20;;
37845;SDS011;23686;49.828;8.702;2023-03-01T04:07:39;21.85;;;14.43;;
37845;SDS011;23686;49.828;8.702;2023-03-01T04:10:05;21.73;;;14.05;;
37845;SDS011;23686;49.828;8.702;2023-03-01T04:12:36;22.70;;;14.25;;
37845;SDS011;23686;49.828;8.702;2023-03-01T04:15:03;22.00;;;13.23;;
37845;SDS011;23686;49.828;8.702;2023-03-01T04:17:45;23.58;;;13.85;;
37845;SDS011;23686;49.828;8.702;2023-03-01T04:20:13;23.23;;;14.05;;
37845;SDS011;23686;49.828;8.702;2023-03-01T04:22:43;23.35;;;12.50;;
37845;SDS011;23686;49.828;8.702;2023-03-01T04:25:12;21.27;;;13.50;;
37845;SDS011;23686;49.828;8.702;2023-03-01T04:27:39;23.45;;;13.75;;
37845;SDS011;23686;49.828;8.702;2023-03-01T04:30:05;22.58;;;13.50;;
37845;SDS011;23686;49.828;8.702;2023-03-01T04:32:32;21.60;;;12.95;;
37845;SDS011;23686;49.828;8.702;2023-03-01T04:34:57;23.80;;;13.63;;
37845;SDS011;23686;49.828;8.702;2023-03-01T04:37:23;22.83;;;12.88;;
37845;SDS011;23686;49.828;8.702;2023-03-01T04:39:49;21.42;;;14.00;;
37845;SDS011;23686;49.828;8.702;2023-03-01T04:42:14;22.35;;;14.23;;
37845;SDS011;23686;49.828;8.702;2023-03-01T04:44:41;22.55;;;14.45;;
37845;SDS011;23686;49.828;8.702;2023-03-01T04:47:07;21.10;;;14.15;;
37845;SDS011;23686;49.828;8.702;2023-03-01T04:49:33;21.58;;;14.60;;
37845;SDS011;23686;49.828;8.702;2023-03-01T04:51:58;25.50;;;14.35;;
37845;SDS011;23686;49.828;8.702;2023-03-01T04:54:26;25.35;;;14.15;;
37845;SDS011;23686;49.828;8.702;2023-03-01T04:56:53;21.45;;;13.85;;
37845;SDS011;23686;49.828;8.702;2023-03-01T04:59:19;25.13;;;14.82;;
37845;SDS011;23686;49.828;8.702;2023-03-01T05:01:47;22.85;;;14.82;;
37845;SDS011;23686;49.828;8.702;2023-03-01T05:04:16;25.27;;;15.02;;
37845;SDS011;23686;49.828;8.702;2023-03-01T05:06:42;26.48;;;14.02;;
37845;SDS011;23686;49.828;8.702;2023-03-01T05:09:07;23.23;;;14.82;;
37845;SDS011;23686;49.828;8.702;2023-03-01T05:11:33;21.92;;;13.77;;
37845;SDS011;23686;49.828;8.702;2023-03-01T05:14:03;22.60;;;15.32;;
37845;SDS011;23686;49.828;8.702;2023-03-01T05:16:29;25.15;;;15.32;;
37845;SDS011;23686;49.828;8.702;2023-03-01T05:18:56;22.77;;;14.57;;
37845;SDS011;23686;49.828;8.702;2023-03-01T05:21:22;20.50;;;13.68;;
37845;SDS011;23686;49.828;8.702;2023-03-01T05:23:48;24.50;;;15.48;;
37845;SDS011;23686;49.828;8.702;2023-03-01T05:26:13;19.80;;;13.50;;
37845;SDS011;23686;49.828;8.702;2023-03-01T05:31:07;22.10;;;14.15;;
37845;SDS011;23686;49.828;8.702;2023-03-01T05:33:35;22.30;;;14.70;;
37845;SDS011;23686;49.828;8.702;2023-03-01T05:36:05;23.67;;;14.45;;
37845;SDS011;23686;49.828;8.702;2023-03-01T05:38:32;26.77;;;15.50;;
37845;SDS011;23686;49.828;8.702;2023-03-01T05:40:58;22.20;;;14.15;;
37845;SDS011;23686;49.828;8.702;2023-03-01T05:43:23;25.55;;;15.40;;
37845;SDS011;23686;49.828;8.702;2023-03-01T05:45:49;25.42;;;14.70;;
37845;SDS011;23686;49.828;8.702;2023-03-01T05:48:14;25.13;;;15.32;;
37845;SDS011;23686;49.828;8.702;2023-03-01T05:50:41;22.38;;;14.23;;
37845;SDS011;23686;49.828;8.702;2023-03-01T05:55:35;24.77;;;16.00;;
37845;SDS011;23686;49.828;8.702;2023-03-01T05:58:02;29.88;;;15.82;;
37845;SDS011;23686;49.828;8.702;2023-03-01T06:00:29;24.83;;;14.80;;
37845;SDS011;23686;49.828;8.702;2023-03-01T06:02:55;24.08;;;15.18;;
37845;SDS011;23686;49.828;8.702;2023-03-01T06:05:22;23.67;;;14.85;;
37845;SDS011;23686;49.828;8.702;2023-03-01T06:07:50;23.02;;;14.13;;
37845;SDS011;23686;49.828;8.702;2023-03-01T06:10:17;25.10;;;16.17;;
37845;SDS011;23686;49.828;8.702;2023-03-01T06:12:43;25.08;;;15.63;;
37845;SDS011;23686;49.828;8.702;2023-03-01T06:15:10;21.55;;;15.07;;
37845;SDS011;23686;49.828;8.702;2023-03-01T06:17:37;25.90;;;14.95;;
37845;SDS011;23686;49.828;8.702;2023-03-01T06:22:34;20.45;;;14.10;;
37845;SDS011;23686;49.828;8.702;2023-03-01T06:24:59;26.02;;;15.15;;
37845;SDS011;23686;49.828;8.702;2023-03-01T06:27:25;26.73;;;15.68;;
37845;SDS011;23686;49.828;8.702;2023-03-01T06:29:50;23.95;;;15.27;;
37845;SDS011;23686;49.828;8.702;2023-03-01T06:32:16;24.90;;;14.38;;
37845;SDS011;23686;49.828;8.702;2023-03-01T06:34:42;22.77;;;15.15;;
37845;SDS011;23686;49.828;8.702;2023-03-01T06:37:07;27.15;;;16.13;;
37845;SDS011;23686;49.828;8.702;2023-03-01T06:39:33;23.77;;;15.95;;
37845;SDS011;23686;49.828;8.702;2023-03-01T06:41:58;26.35;;;15.02;;
37845;SDS011;23686;49.828;8.702;2023-03-01T06:44:24;25.88;;;14.45;;
37845;SDS011;23686;49.828;8.702;2023-03-01T06:46:50;25.38;;;16.02;;
37845;SDS011;23686;49.828;8.702;2023-03-01T06:49:15;27.20;;;15.70;;
37845;SDS011;23686;49.828;8.702;2023-03-01T06:51:42;23.83;;;15.07;;
37845;SDS011;23686;49.828;8.702;2023-03-01T06:54:08;25.30;;;16.25;;
37845;SDS011;23686;49.828;8.702;2023-03-01T06:56:34;25.35;;;16.05;;
37845;SDS011;23686;49.828;8.702;2023-03-01T06:59:00;22.85;;;15.27;;
37845;SDS011;23686;49.828;8.702;2023-03-01T07:01:27;25.35;;;15.80;;
37845;SDS011;23686;49.828;8.702;2023-03-01T07:03:53;24.95;;;16.38;;
37845;SDS011;23686;49.828;8.702;2023-03-01T07:06:18;26.52;;;15.75;;
37845;SDS011;23686;49.828;8.702;2023-03-01T07:08:44;25.33;;;15.00;;
37845;SDS011;23686;49.828;8.702;2023-03-01T07:11:09;23.92;;;14.65;;
37845;SDS011;23686;49.828;8.702;2023-03-01T07:13:35;24.27;;;14.65;;
37845;SDS011;23686;49.828;8.702;2023-03-01T07:16:01;25.30;;;15.63;;
37845;SDS011;23686;49.828;8.702;2023-03-01T07:18:26;27.13;;;14.82;;
37845;SDS011;23686;49.828;8.702;2023-03-01T07:20:52;24.02;;;14.70;;
37845;SDS011;23686;49.828;8.702;2023-03-01T07:23:17;27.83;;;15.75;;
37845;SDS011;23686;49.828;8.702;2023-03-01T07:25:43;23.38;;;15.32;;
37845;SDS011;23686;49.828;8.702;2023-03-01T07:28:09;26.08;;;15.85;;
37845;SDS011;23686;49.828;8.702;2023-03-01T07:30:34;22.40;;;15.07;;
37845;SDS011;23686;49.828;8.702;2023-03-01T07:33:01;27.52;;;15.75;;
37845;SDS011;23686;49.828;8.702;2023-03-01T07:35:27;24.90;;;15.60;;
37845;SDS011;23686;49.828;8.702;2023-03-01T07:37:52;24.48;;;15.63;;
37845;SDS011;23686;49.828;8.702;2023-03-01T07:40:18;26.90;;;16.67;;
37845;SDS011;23686;49.828;8.702;2023-03-01T07:42:44;22.35;;;14.43;;
37845;SDS011;23686;49.828;8.702;2023-03-01T07:45:10;27.45;;;16.50;;
37845;SDS011;23686;49.828;8.702;2023-03-01T07:47:36;23.85;;;15.30;;
37845;SDS011;23686;49.828;8.702;2023-03-01T07:50:02;25.50;;;15.48;;
37845;SDS011;23686;49.828;8.702;2023-03-01T07:52:29;25.70;;;16.42;;
37845;SDS011;23686;49.828;8.702;2023-03-01T07:54:55;24.95;;;16.27;;
37845;SDS011;23686;49.828;8.702;2023-03-01T07:57:21;24.52;;;15.27;;
37845;SDS011;23686;49.828;8.702;2023-03-01T07:59:47;22.98;;;14.32;;
37845;SDS011;23686;49.828;8.702;2023-03-01T08:02:12;24.20;;;15.57;;
37845;SDS011;23686;49.828;8.702;2023-03-01T08:04:39;26.92;;;16.77;;
37845;SDS011;23686;49.828;8.702;2023-03-01T08:07:06;25.88;;;16.13;;
37845;SDS011;23686;49.828;8.702;2023-03-01T08:09:31;25.98;;;15.63;;
37845;SDS011;23686;49.828;8.702;2023-03-01T08:11:59;21.52;;;15.38;;
37845;SDS011;23686;49.828;8.702;2023-03-01T08:14:25;24.75;;;15.52;;
37845;SDS011;23686;49.828;8.702;2023-03-01T08:16:50;23.02;;;15.23;;
37845;SDS011;23686;49.828;8.702;2023-03-01T08:19:16;25.58;;;15.75;;
37845;SDS011;23686;49.828;8.702;2023-03-01T08:21:42;25.83;;;16.38;;
37845;SDS011;23686;49.828;8.702;2023-03-01T08:24:08;23.73;;;15.60;;
37845;SDS011;23686;49.828;8.702;2023-03-01T08:26:35;25.23;;;15.95;;
37845;SDS011;23686;49.828;8.702;2023-03-01T08:29:02;23.05;;;15.20;;
37845;SDS011;23686;49.828;8.702;2023-03-01T08:31:32;26.20;;;16.02;;
37845;SDS011;23686;49.828;8.702;2023-03-01T08:34:01;22.95;;;15.68;;
37845;SDS011;23686;49.828;8.702;2023-03-01T08:36:31;22.55;;;14.82;;
37845;SDS011;23686;49.828;8.702;2023-03-01T08:38:59;23.35;;;15.60;;
37845;SDS011;23686;49.828;8.702;2023-03-01T08:41:25;22.88;;;16.17;;
37845;SDS011;23686;49.828;8.702;2023-03-01T08:43:51;23.48;;;15.35;;
37845;SDS011;23686;49.828;8.702;2023-03-01T08:46:17;24.27;;;16.27;;
37845;SDS011;23686;49.828;8.702;2023-03-01T08:48:43;23.17;;;15.55;;
37845;SDS011;23686;49.828;8.702;2023-03-01T08:51:16;26.67;;;15.25;;
37845;SDS011;23686;49.828;8.702;2023-03-01T08:53:43;23.98;;;16.20;;
37845;SDS011;23686;49.828;8.702;2023-03-01T08:56:09;36.00;;;15.30;;
37845;SDS011;23686;49.828;8.702;2023-03-01T08:58:35;23.10;;;15.18;;
37845;SDS011;23686;49.828;8.702;2023-03-01T09:01:06;22.65;;;14.40;;
37845;SDS011;23686;49.828;8.702;2023-03-01T09:03:35;26.08;;;16.20;;
37845;SDS011;23686;49.828;8.702;2023-03-01T09:06:02;26.52;;;16.48;;
37845;SDS011;23686;49.828;8.702;2023-03-01T09:08:29;22.57;;;15.67;;
37845;SDS011;23686;49.828;8.702;2023-03-01T09:10:55;24.17;;;16.63;;
37845;SDS011;23686;49.828;8.702;2023-03-01T09:13:21;22.88;;;15.40;;
37845;SDS011;23686;49.828;8.702;2023-03-01T09:15:49;23.67;;;16.42;;
37845;SDS011;23686;49.828;8.702;2023-03-01T09:18:15;22.42;;;14.93;;
37845;SDS011;23686;49.828;8.702;2023-03-01T09:20:41;21.75;;;14.60;;
37845;SDS011;23686;49.828;8.702;2023-03-01T09:23:06;24.30;;;15.63;;
37845;SDS011;23686;49.828;8.702;2023-03-01T09:25:33;25.80;;;15.98;;
37845;SDS011;23686;49.828;8.702;2023-03-01T09:27:59;26.27;;;16.45;;
37845;SDS011;23686;49.828;8.702;2023-03-01T09:30:24;24.20;;;16.85;;
37845;SDS011;23686;49.828;8.702;2023-03-01T09:32:50;25.20;;;16.90;;
37845;SDS011;23686;49.828;8.702;2023-03-01T09:35:16;27.55;;;16.05;;
37845;SDS011;23686;49.828;8.702;2023-03-01T09:37:41;27.17;;;16.75;;
37845;SDS011;23686;49.828;8.702;2023-03-01T09:40:12;24.75;;;16.05;;
37845;SDS011;23686;49.828;8.702;2023-03-01T09:42:57;27.85;;;16.63;;
37845;SDS011;23686;49.828;8.702;2023-03-01T09:45:34;27.13;;;17.17;;
37845;SDS011;23686;49.828;8.702;2023-03-01T09:48:03;26.65;;;16.60;;
37845;SDS011;23686;49.828;8.702;2023-03-01T09:50:38;25.20;;;17.65;;
37845;SDS011;23686;49.828;8.702;2023-03-01T09:53:07;25.92;;;16.65;;
37845;SDS011;23686;49.828;8.702;2023-03-01T09:55:45;26.52;;;17.48;;
37845;SDS011;23686;49.828;8.702;2023-03-01T09:58:34;25.20;;;16.92;;
37845;SDS011;23686;49.828;8.702;2023-03-01T10:06:51;26.95;;;17.35;;
37845;SDS011;23686;49.828;8.702;2023-03-01T10:09:26;28.30;;;17.25;;
37845;SDS011;23686;49.828;8.702;2023-03-01T10:19:55;25.75;;;17.55;;
37845;SDS011;23686;49.828;8.702;2023-03-01T10:22:35;26.27;;;17.83;;
37845;SDS011;23686;49.828;8.702;2023-03-01T10:25:02;28.17;;;17.63;;
37845;SDS011;23686;49.828;8.702;2023-03-01T10:27:41;27.50;;;17.77;;
37845;SDS011;23686;49.828;8.702;2023-03-01T10:30:17;27.88;;;18.90;;
37845;SDS011;23686;49.828;8.702;2023-03-01T10:33:08;26.92;;;18.38;;
37845;SDS011;23686;49.828;8.702;2023-03-01T10:35:44;25.25;;;17.80;;
37845;SDS011;23686;49.828;8.702;2023-03-01T10:38:10;29.52;;;18.50;;
37845;SDS011;23686;49.828;8.702;2023-03-01T10:40:54;28.80;;;17.65;;
37845;SDS011;23686;49.828;8.702;2023-03-01T10:43:22;27.40;;;17.63;;
37845;SDS011;23686;49.828;8.702;2023-03-01T10:45:50;29.00;;;19.23;;
37845;SDS011;23686;49.828;8.702;2023-03-01T10:51:05;27.33;;;18.70;;
37845;SDS011;23686;49.828;8.702;2023-03-01T10:53:41;26.98;;;18.55;;
37845;SDS011;23686;49.828;8.702;2023-03-01T10:56:11;23.55;;;17.23;;
37845;SDS011;23686;49.828;8.702;2023-03-01T10:58:39;31.02;;;18.70;;
37845;SDS011;23686;49.828;8.702;2023-03-01T11:01:26;30.15;;;17.88;;
37845;SDS011;23686;49.828;8.702;2023-03-01T11:06:32;26.40;;;17.13;;
37845;SDS011;23686;49.828;8.702;2023-03-01T11:09:12;26.08;;;16.90;;
37845;SDS011;23686;49.828;8.702;2023-03-01T11:11:40;29.27;;;18.02;;
37845;SDS011;23686;49.828;8.702;2023-03-01T11:14:11;26.35;;;17.88;;
37845;SDS011;23686;49.828;8.702;2023-03-01T11:16:41;24.80;;;16.77;;
37845;SDS011;23686;49.828;8.702;2023-03-01T11:24:15;21.63;;;15.85;;
37845;SDS011;23686;49.828;8.702;2023-03-01T11:26:44;25.77;;;17.27;;
37845;SDS011;23686;49.828;8.702;2023-03-01T11:29:17;27.60;;;16.98;;
37845;SDS011;23686;49.828;8.702;2023-03-01T11:31:56;20.92;;;14.80;;
37845;SDS011;23686;49.828;8.702;2023-03-01T11:34:47;22.25;;;15.13;;
37845;SDS011;23686;49.828;8.702;2023-03-01T11:37:40;22.83;;;15.57;;
37845;SDS011;23686;49.828;8.702;2023-03-01T11:40:27;22.40;;;15.75;;
37845;SDS011;23686;49.828;8.702;2023-03-01T11:54:53;26.40;;;15.95;;
37845;SDS011;23686;49.828;8.702;2023-03-01T11:57:49;22.10;;;14.88;;
37845;SDS011;23686;49.828;8.702;2023-03-01T12:00:27;21.42;;;15.43;;
37845;SDS011;23686;49.828;8.702;2023-03-01T12:24:49;19.75;;;13.00;;
37845;SDS011;23686;49.828;8.702;2023-03-01T12:27:47;18.92;;;12.98;;
37845;SDS011;23686;49.828;8.702;2023-03-01T12:33:13;18.67;;;12.80;;
37845;SDS011;23686;49.828;8.702;2023-03-01T12:40:45;19.58;;;12.30;;
37845;SDS011;23686;49.828;8.702;2023-03-01T12:43:53;16.10;;;10.68;;
37845;SDS011;23686;49.828;8.702;2023-03-01T12:49:39;15.90;;;11.20;;
37845;SDS011;23686;49.828;8.702;2023-03-01T12:52:09;16.45;;;11.48;;
37845;SDS011;23686;49.828;8.702;2023-03-01T12:54:36;16.02;;;12.00;;
37845;SDS011;23686;49.828;8.702;2023-03-01T12:57:16;16.05;;;12.13;;
37845;SDS011;23686;49.828;8.702;2023-03-01T13:00:02;15.90;;;11.57;;
37845;SDS011;23686;49.828;8.702;2023-03-01T13:05:38;15.98;;;11.40;;
37845;SDS011;23686;49.828;8.702;2023-03-01T13:08:29;16.52;;;11.25;;
37845;SDS011;23686;49.828;8.702;2023-03-01T13:11:04;17.63;;;11.38;;
37845;SDS011;23686;49.828;8.702;2023-03-01T13:13:36;15.55;;;11.25;;
37845;SDS011;23686;49.828;8.702;2023-03-01T13:17:02;16.00;;;11.25;;
37845;SDS011;23686;49.828;8.702;2023-03-01T13:19:06;15.60;;;10.57;;
37845;SDS011;23686;49.828;8.702;2023-03-01T13:21:37;16.20;;;11.93;;
37845;SDS011;23686;49.828;8.702;2023-03-01T13:24:03;16.38;;;12.15;;
37845;SDS011;23686;49.828;8.702;2023-03-01T13:26:29;15.00;;;11.05;;
37845;SDS011;23686;49.828;8.702;2023-03-01T13:28:55;13.43;;;9.90;;
37845;SDS011;23686;49.828;8.702;2023-03-01T13:44:20;18.17;;;11.10;;
37845;SDS011;23686;49.828;8.702;2023-03-01T13:47:03;20.10;;;11.27;;
37845;SDS011;23686;49.828;8.702;2023-03-01T13:49:34;13.85;;;10.73;;
37845;SDS011;23686;49.828;8.702;2023-03-01T13:52:13;16.17;;;11.38;;
37845;SDS011;23686;49.828;8.702;2023-03-01T13:54:55;18.02;;;10.73;;
37845;SDS011;23686;49.828;8.702;2023-03-01T13:57:23;14.00;;;9.85;;
37845;SDS011;23686;49.828;8.702;2023-03-01T13:59:53;12.65;;;9.32;;
37845;SDS011;23686;49.828;8.702;2023-03-01T14:02:19;12.45;;;10.23;;
37845;SDS011;23686;49.828;8.702;2023-03-01T14:04:46;13.38;;;9.73;;
37845;SDS011;23686;49.828;8.702;2023-03-01T14:07:25;14.48;;;10.80;;
37845;SDS011;23686;49.828;8.702;2023-03-01T14:09:54;12.88;;;9.20;;
37845;SDS011;23686;49.828;8.702;2023-03-01T14:12:39;13.82;;;9.95;;
37845;SDS011;23686;49.828;8.702;2023-03-01T14:15:18;12.85;;;9.23;;
37845;SDS011;23686;49.828;8.702;2023-03-01T14:20:27;17.05;;;9.90;;
37845;SDS011;23686;49.828;8.702;2023-03-01T14:22:56;11.52;;;9.05;;
37845;SDS011;23686;49.828;8.702;2023-03-01T14:28:04;11.43;;;8.88;;
37845;SDS011;23686;49.828;8.702;2023-03-01T14:30:45;9.90;;;8.23;;
37845;SDS011;23686;49.828;8.702;2023-03-01T14:35:57;11.85;;;8.75;;
37845;SDS011;23686;49.828;8.702;2023-03-01T14:38:31;12.37;;;8.50;;
37845;SDS011;23686;49.828;8.702;2023-03-01T14:41:01;13.18;;;8.68;;
37845;SDS011;23686;49.828;8.702;2023-03-01T14:43:30;14.27;;;9.10;;
37845;SDS011;23686;49.828;8.702;2023-03-01T14:45:56;9.80;;;8.23;;
37845;SDS011;23686;49.828;8.702;2023-03-01T14:48:22;14.70;;;8.88;;
37845;SDS011;23686;49.828;8.702;2023-03-01T14:50:48;15.05;;;9.00;;
37845;SDS011;23686;49.828;8.702;2023-03-01T14:53:16;15.27;;;10.45;;
37845;SDS011;23686;49.828;8.702;2023-03-01T14:55:59;14.57;;;9.10;;
37845;SDS011;23686;49.828;8.702;2023-03-01T14:58:31;14.57;;;9.40;;
37845;SDS011;23686;49.828;8.702;2023-03-01T15:03:49;13.07;;;9.60;;
37845;SDS011;23686;49.828;8.702;2023-03-01T15:06:16;14.48;;;10.85;;
37845;SDS011;23686;49.828;8.702;2023-03-01T15:08:45;16.20;;;10.68;;
37845;SDS011;23686;49.828;8.702;2023-03-01T15:13:51;13.25;;;10.35;;
37845;SDS011;23686;49.828;8.702;2023-03-01T15:18:45;14.20;;;10.10;;
37845;SDS011;23686;49.828;8.702;2023-03-01T15:21:17;16.55;;;10.93;;
37845;SDS011;23686;49.828;8.702;2023-03-01T15:23:52;17.05;;;10.30;;
37845;SDS011;23686;49.828;8.702;2023-03-01T15:26:24;13.25;;;9.93;;
37845;SDS011;23686;49.828;8.702;2023-03-01T15:28:55;16.95;;;11.27;;
37845;SDS011;23686;49.828;8.702;2023-03-01T15:31:31;15.80;;;11.25;;
37845;SDS011;23686;49.828;8.702;2023-03-01T15:36:49;17.10;;;11.77;;
37845;SDS011;23686;49.828;8.702;2023-03-01T15:44:35;16.90;;;11.23;;
37845;SDS011;23686;49.828;8.702;2023-03-01T15:47:04;17.33;;;11.40;;
37845;SDS011;23686;49.828;8.702;2023-03-01T15:49:50;20.95;;;11.73;;
37845;SDS011;23686;49.828;8.702;2023-03-01T15:52:40;15.77;;;11.55;;
37845;SDS011;23686;49.828;8.702;2023-03-01T15:55:17;15.70;;;11.00;;
37845;SDS011;23686;49.828;8.702;2023-03-01T15:58:00;14.13;;;10.55;;
37845;SDS011;23686;49.828;8.702;2023-03-01T16:00:29;20.52;;;10.95;;
37845;SDS011;23686;49.828;8.702;2023-03-01T16:02:55;15.77;;;11.20;;
37845;SDS011;23686;49.828;8.702;2023-03-01T16:05:22;17.25;;;11.05;;
37845;SDS011;23686;49.828;8.702;2023-03-01T16:07:49;15.65;;;11.45;;
37845;SDS011;23686;49.828;8.702;2023-03-01T16:10:15;17.77;;;11.40;;
37845;SDS011;23686;49.828;8.702;2023-03-01T16:12:41;16.15;;;11.13;;
37845;SDS011;23686;49.828;8.702;2023-03-01T16:15:27;15.02;;;11.20;;
37845;SDS011;23686;49.828;8.702;2023-03-01T16:17:58;17.27;;;10.68;;
37845;SDS011;23686;49.828;8.702;2023-03-01T16:20:24;16.98;;;11.90;;
37845;SDS011;23686;49.828;8.702;2023-03-01T16:22:50;13.98;;;10.20;;
37845;SDS011;23686;49.828;8.702;2023-03-01T16:25:17;16.58;;;10.95;;
37845;SDS011;23686;49.828;8.702;2023-03-01T16:27:45;16.45;;;10.80;;
37845;SDS011;23686;49.828;8.702;2023-03-01T16:30:12;18.65;;;11.38;;
37845;SDS011;23686;49.828;8.702;2023-03-01T16:32:39;16.27;;;11.15;;
37845;SDS011;23686;49.828;8.702;2023-03-01T16:35:07;16.80;;;10.65;;
37845;SDS011;23686;49.828;8.702;2023-03-01T16:37:34;16.10;;;10.70;;
37845;SDS011;23686;49.828;8.702;2023-03-01T16:40:01;16.80;;;11.07;;
37845;SDS011;23686;49.828;8.702;2023-03-01T16:42:29;15.13;;;10.02;;
37845;SDS011;23686;49.828;8.702;2023-03-01T16:44:58;16.05;;;11.10;;